sensor_id;sensor_type;location;lat;lon;timestamp;P1;durP1;ratioP1;P2;durP2;ratioP2
73575;SDS011;61859;49.204;8.140;2024-03-06T00:00:30;3.10;;;2.70;;
73575;SDS011;61859;49.204;8.140;2024-03-06T00:02:58;4.07;;;3.40;;
73575;SDS011;61859;49.204;8.140;2024-03-06T00:05:23;3.40;;;2.97;;
73575;SDS011;61859;49.204;8.140;2024-03-06T00:07:49;7.93;;;3.00;;
73575;SDS011;61859;49.204;8.140;2024-03-06T00:10:14;4.30;;;2.77;;
73575;SDS011;61859;49.204;8.140;2024-03-06T00:12:40;3.20;;;2.30;;
73575;SDS011;61859;49.204;8.140;2024-03-06T00:15:06;3.80;;;2.57;;
73575;SDS011;61859;49.204;8.140;2024-03-06T00:17:32;4.17;;;2.40;;
73575;SDS011;61859;49.204;8.140;2024-03-06T00:19:57;3.30;;;2.67;;
73575;SDS011;61859;49.204;8.140;2024-03-06T00:22:23;4.10;;;2.10;;
73575;SDS011;61859;49.204;8.140;2024-03-06T00:24:48;2.30;;;1.90;;
73575;SDS011;61859;49.204;8.140;2024-03-06T00:27:13;2.30;;;2.10;;
73575;SDS011;61859;49.204;8.140;2024-03-06T00:29:39;5.23;;;1.83;;
73575;SDS011;61859;49.204;8.140;2024-03-06T00:32:05;4.13;;;2.30;;
73575;SDS011;61859;49.204;8.140;2024-03-06T00:34:30;2.73;;;2.23;;
73575;SDS011;61859;49.204;8.140;2024-03-06T00:36:56;5.07;;;2.13;;
73575;SDS011;61859;49.204;8.140;2024-03-06T00:39:22;2.67;;;1.97;;
73575;SDS011;61859;49.204;8.140;2024-03-06T00:41:47;3.13;;;2.00;;
73575;SDS011;61859;49.204;8.140;2024-03-06T00:44:13;4.30;;;2.47;;
73575;SDS011;61859;49.204;8.140;2024-03-06T00:46:38;12.10;;;7.67;;
73575;SDS011;61859;49.204;8.140;2024-03-06T00:49:04;19.07;;;12.17;;
73575;SDS011;61859;49.204;8.140;2024-03-06T00:51:29;7.77;;;6.00;;
73575;SDS011;61859;49.204;8.140;2024-03-06T00:53:56;4.20;;;3.30;;
73575;SDS011;61859;49.204;8.140;2024-03-06T00:56:22;3.50;;;3.00;;
73575;SDS011;61859;49.204;8.140;2024-03-06T00:58:47;2.90;;;2.60;;
73575;SDS011;61859;49.204;8.140;2024-03-06T01:01:13;4.33;;;2.60;;
73575;SDS011;61859;49.204;8.140;2024-03-06T01:03:40;3.10;;;2.20;;
73575;SDS011;61859;49.204;8.140;2024-03-06T01:06:06;3.13;;;2.40;;
73575;SDS011;61859;49.204;8.140;2024-03-06T01:08:31;2.20;;;1.97;;
73575;SDS011;61859;49.204;8.140;2024-03-06T01:10:57;2.70;;;1.80;;
73575;SDS011;61859;49.204;8.140;2024-03-06T01:13:23;3.17;;;2.00;;
73575;SDS011;61859;49.204;8.140;2024-03-06T01:15:49;2.70;;;2.03;;
73575;SDS011;61859;49.204;8.140;2024-03-06T01:18:14;2.47;;;2.10;;
73575;SDS011;61859;49.204;8.140;2024-03-06T01:20:40;3.40;;;2.40;;
73575;SDS011;61859;49.204;8.140;2024-03-06T01:23:05;3.20;;;2.50;;
73575;SDS011;61859;49.204;8.140;2024-03-06T01:25:31;2.53;;;2.20;;
73575;SDS011;61859;49.204;8.140;2024-03-06T01:27:57;4.27;;;2.47;;
73575;SDS011;61859;49.204;8.140;2024-03-06T01:30:22;2.30;;;2.10;;
73575;SDS011;61859;49.204;8.140;2024-03-06T01:32:48;5.73;;;2.63;;
73575;SDS011;61859;49.204;8.140;2024-03-06T01:35:14;2.90;;;2.07;;
73575;SDS011;61859;49.204;8.140;2024-03-06T01:37:39;2.50;;;2.00;;
73575;SDS011;61859;49.204;8.140;2024-03-06T01:40:05;1.63;;;1.53;;
73575;SDS011;61859;49.204;8.140;2024-03-06T01:42:32;2.43;;;1.87;;
73575;SDS011;61859;49.204;8.140;2024-03-06T01:44:57;4.10;;;1.93;;
73575;SDS011;61859;49.204;8.140;2024-03-06T01:47:23;2.33;;;1.90;;
73575;SDS011;61859;49.204;8.140;2024-03-06T01:49:49;2.33;;;2.03;;
73575;SDS011;61859;49.204;8.140;2024-03-06T01:52:15;2.17;;;1.90;;
73575;SDS011;61859;49.204;8.140;2024-03-06T01:54:42;2.20;;;2.00;;
73575;SDS011;61859;49.204;8.140;2024-03-06T01:57:09;2.23;;;1.80;;
73575;SDS011;61859;49.204;8.140;2024-03-06T01:59:38;2.50;;;2.03;;
73575;SDS011;61859;49.204;8.140;2024-03-06T02:02:04;3.50;;;2.00;;
73575;SDS011;61859;49.204;8.140;2024-03-06T02:04:32;1.87;;;1.77;;
73575;SDS011;61859;49.204;8.140;2024-03-06T02:06:58;2.27;;;1.60;;
73575;SDS011;61859;49.204;8.140;2024-03-06T02:09:23;2.57;;;1.93;;
73575;SDS011;61859;49.204;8.140;2024-03-06T02:11:49;2.97;;;1.77;;
73575;SDS011;61859;49.204;8.140;2024-03-06T02:14:18;2.13;;;1.93;;
73575;SDS011;61859;49.204;8.140;2024-03-06T02:16:44;5.80;;;1.90;;
73575;SDS011;61859;49.204;8.140;2024-03-06T02:19:09;2.33;;;1.97;;
73575;SDS011;61859;49.204;8.140;2024-03-06T02:21:35;3.23;;;1.97;;
73575;SDS011;61859;49.204;8.140;2024-03-06T02:24:01;2.83;;;2.30;;
73575;SDS011;61859;49.204;8.140;2024-03-06T02:26:26;2.63;;;2.07;;
73575;SDS011;61859;49.204;8.140;2024-03-06T02:28:53;3.93;;;2.10;;
73575;SDS011;61859;49.204;8.140;2024-03-06T02:31:20;4.10;;;2.20;;
73575;SDS011;61859;49.204;8.140;2024-03-06T02:33:46;2.93;;;2.20;;
73575;SDS011;61859;49.204;8.140;2024-03-06T02:36:13;3.20;;;2.20;;
73575;SDS011;61859;49.204;8.140;2024-03-06T02:38:39;4.53;;;2.07;;
73575;SDS011;61859;49.204;8.140;2024-03-06T02:41:05;5.07;;;2.27;;
73575;SDS011;61859;49.204;8.140;2024-03-06T02:43:32;4.80;;;2.60;;
73575;SDS011;61859;49.204;8.140;2024-03-06T02:45:58;6.60;;;2.50;;
73575;SDS011;61859;49.204;8.140;2024-03-06T02:48:23;4.73;;;2.30;;
73575;SDS011;61859;49.204;8.140;2024-03-06T02:50:49;4.27;;;2.67;;
73575;SDS011;61859;49.204;8.140;2024-03-06T02:53:14;3.60;;;2.30;;
73575;SDS011;61859;49.204;8.140;2024-03-06T02:55:40;2.93;;;2.10;;
73575;SDS011;61859;49.204;8.140;2024-03-06T02:58:05;2.63;;;2.37;;
73575;SDS011;61859;49.204;8.140;2024-03-06T03:00:31;2.80;;;2.40;;
73575;SDS011;61859;49.204;8.140;2024-03-06T03:02:57;2.17;;;1.97;;
73575;SDS011;61859;49.204;8.140;2024-03-06T03:05:23;2.10;;;1.90;;
73575;SDS011;61859;49.204;8.140;2024-03-06T03:07:48;2.23;;;1.67;;
73575;SDS011;61859;49.204;8.140;2024-03-06T03:10:14;2.30;;;2.00;;
73575;SDS011;61859;49.204;8.140;2024-03-06T03:12:40;2.60;;;1.93;;
73575;SDS011;61859;49.204;8.140;2024-03-06T03:15:06;2.10;;;1.80;;
73575;SDS011;61859;49.204;8.140;2024-03-06T03:17:32;1.80;;;1.70;;
73575;SDS011;61859;49.204;8.140;2024-03-06T03:19:58;2.63;;;1.80;;
73575;SDS011;61859;49.204;8.140;2024-03-06T03:22:24;2.73;;;1.90;;
73575;SDS011;61859;49.204;8.140;2024-03-06T03:24:50;4.97;;;2.10;;
73575;SDS011;61859;49.204;8.140;2024-03-06T03:27:15;2.97;;;2.07;;
73575;SDS011;61859;49.204;8.140;2024-03-06T03:29:41;3.50;;;1.80;;
73575;SDS011;61859;49.204;8.140;2024-03-06T03:32:07;2.90;;;2.00;;
73575;SDS011;61859;49.204;8.140;2024-03-06T03:34:35;2.13;;;1.90;;
73575;SDS011;61859;49.204;8.140;2024-03-06T03:37:01;2.40;;;1.70;;
73575;SDS011;61859;49.204;8.140;2024-03-06T03:39:27;2.37;;;1.80;;
73575;SDS011;61859;49.204;8.140;2024-03-06T03:41:52;2.90;;;1.97;;
73575;SDS011;61859;49.204;8.140;2024-03-06T03:44:18;1.83;;;1.40;;
73575;SDS011;61859;49.204;8.140;2024-03-06T03:46:44;2.77;;;2.20;;
73575;SDS011;61859;49.204;8.140;2024-03-06T03:49:10;4.23;;;1.60;;
73575;SDS011;61859;49.204;8.140;2024-03-06T03:51:37;2.40;;;1.90;;
73575;SDS011;61859;49.204;8.140;2024-03-06T03:54:03;5.73;;;1.83;;
73575;SDS011;61859;49.204;8.140;2024-03-06T03:56:29;6.23;;;2.10;;
73575;SDS011;61859;49.204;8.140;2024-03-06T03:58:56;2.50;;;1.73;;
73575;SDS011;61859;49.204;8.140;2024-03-06T04:01:22;3.37;;;2.10;;
73575;SDS011;61859;49.204;8.140;2024-03-06T04:03:48;2.97;;;2.10;;
73575;SDS011;61859;49.204;8.140;2024-03-06T04:06:13;2.50;;;1.80;;
73575;SDS011;61859;49.204;8.140;2024-03-06T04:08:39;1.77;;;1.43;;
73575;SDS011;61859;49.204;8.140;2024-03-06T04:11:06;1.50;;;1.40;;
73575;SDS011;61859;49.204;8.140;2024-03-06T04:13:36;1.83;;;1.63;;
73575;SDS011;61859;49.204;8.140;2024-03-06T04:16:03;3.90;;;1.90;;
73575;SDS011;61859;49.204;8.140;2024-03-06T04:18:30;2.50;;;1.87;;
73575;SDS011;61859;49.204;8.140;2024-03-06T04:21:08;2.67;;;1.60;;
73575;SDS011;61859;49.204;8.140;2024-03-06T04:23:35;2.20;;;1.80;;
73575;SDS011;61859;49.204;8.140;2024-03-06T04:26:01;1.83;;;1.60;;
73575;SDS011;61859;49.204;8.140;2024-03-06T04:28:28;2.93;;;1.53;;
73575;SDS011;61859;49.204;8.140;2024-03-06T04:30:54;2.57;;;1.70;;
73575;SDS011;61859;49.204;8.140;2024-03-06T04:33:20;2.83;;;1.70;;
73575;SDS011;61859;49.204;8.140;2024-03-06T04:35:46;3.73;;;1.70;;
73575;SDS011;61859;49.204;8.140;2024-03-06T04:38:12;2.97;;;1.87;;
73575;SDS011;61859;49.204;8.140;2024-03-06T04:40:37;2.57;;;1.60;;
73575;SDS011;61859;49.204;8.140;2024-03-06T04:43:03;3.00;;;1.70;;
73575;SDS011;61859;49.204;8.140;2024-03-06T04:45:28;5.00;;;1.63;;
73575;SDS011;61859;49.204;8.140;2024-03-06T04:47:54;2.73;;;1.50;;
73575;SDS011;61859;49.204;8.140;2024-03-06T04:50:20;1.77;;;1.53;;
73575;SDS011;61859;49.204;8.140;2024-03-06T04:52:46;2.80;;;1.80;;
73575;SDS011;61859;49.204;8.140;2024-03-06T04:55:11;2.30;;;2.00;;
73575;SDS011;61859;49.204;8.140;2024-03-06T04:57:37;2.60;;;1.63;;
73575;SDS011;61859;49.204;8.140;2024-03-06T05:00:05;2.03;;;1.83;;
73575;SDS011;61859;49.204;8.140;2024-03-06T05:02:31;1.60;;;1.50;;
73575;SDS011;61859;49.204;8.140;2024-03-06T05:05:01;3.87;;;2.30;;
73575;SDS011;61859;49.204;8.140;2024-03-06T05:07:28;2.77;;;1.90;;
73575;SDS011;61859;49.204;8.140;2024-03-06T05:09:54;2.57;;;1.67;;
73575;SDS011;61859;49.204;8.140;2024-03-06T05:12:20;2.67;;;2.03;;
73575;SDS011;61859;49.204;8.140;2024-03-06T05:14:45;2.20;;;1.80;;
73575;SDS011;61859;49.204;8.140;2024-03-06T05:17:11;2.10;;;1.87;;
73575;SDS011;61859;49.204;8.140;2024-03-06T05:19:36;2.67;;;2.17;;
73575;SDS011;61859;49.204;8.140;2024-03-06T05:22:02;3.57;;;2.43;;
73575;SDS011;61859;49.204;8.140;2024-03-06T05:24:29;2.93;;;1.90;;
73575;SDS011;61859;49.204;8.140;2024-03-06T05:26:55;3.33;;;2.40;;
73575;SDS011;61859;49.204;8.140;2024-03-06T05:29:20;3.00;;;2.37;;
73575;SDS011;61859;49.204;8.140;2024-03-06T05:31:46;4.60;;;2.50;;
73575;SDS011;61859;49.204;8.140;2024-03-06T05:34:11;3.10;;;2.03;;
73575;SDS011;61859;49.204;8.140;2024-03-06T05:36:37;6.60;;;2.30;;
73575;SDS011;61859;49.204;8.140;2024-03-06T05:39:02;3.37;;;2.07;;
73575;SDS011;61859;49.204;8.140;2024-03-06T05:41:32;4.30;;;2.27;;
73575;SDS011;61859;49.204;8.140;2024-03-06T05:43:57;3.67;;;2.17;;
73575;SDS011;61859;49.204;8.140;2024-03-06T05:46:23;4.57;;;2.63;;
73575;SDS011;61859;49.204;8.140;2024-03-06T05:48:48;3.90;;;2.80;;
73575;SDS011;61859;49.204;8.140;2024-03-06T05:51:16;2.90;;;2.50;;
73575;SDS011;61859;49.204;8.140;2024-03-06T05:53:41;4.60;;;2.20;;
73575;SDS011;61859;49.204;8.140;2024-03-06T05:56:08;3.97;;;2.80;;
73575;SDS011;61859;49.204;8.140;2024-03-06T05:58:34;2.53;;;2.33;;
73575;SDS011;61859;49.204;8.140;2024-03-06T06:01:02;3.83;;;2.80;;
73575;SDS011;61859;49.204;8.140;2024-03-06T06:03:28;3.67;;;2.13;;
73575;SDS011;61859;49.204;8.140;2024-03-06T06:05:55;2.73;;;2.50;;
73575;SDS011;61859;49.204;8.140;2024-03-06T06:08:21;3.90;;;3.17;;
73575;SDS011;61859;49.204;8.140;2024-03-06T06:10:47;2.93;;;2.40;;
73575;SDS011;61859;49.204;8.140;2024-03-06T06:13:12;4.07;;;2.70;;
73575;SDS011;61859;49.204;8.140;2024-03-06T06:15:38;4.50;;;3.53;;
73575;SDS011;61859;49.204;8.140;2024-03-06T06:18:03;4.30;;;2.70;;
73575;SDS011;61859;49.204;8.140;2024-03-06T06:20:29;5.20;;;2.80;;
73575;SDS011;61859;49.204;8.140;2024-03-06T06:22:55;3.73;;;2.67;;
73575;SDS011;61859;49.204;8.140;2024-03-06T06:25:21;6.33;;;2.73;;
73575;SDS011;61859;49.204;8.140;2024-03-06T06:27:47;4.47;;;3.17;;
73575;SDS011;61859;49.204;8.140;2024-03-06T06:30:14;3.73;;;2.70;;
73575;SDS011;61859;49.204;8.140;2024-03-06T06:32:41;4.23;;;3.00;;
73575;SDS011;61859;49.204;8.140;2024-03-06T06:35:08;4.67;;;3.00;;
73575;SDS011;61859;49.204;8.140;2024-03-06T06:37:34;3.83;;;3.43;;
73575;SDS011;61859;49.204;8.140;2024-03-06T06:40:00;4.10;;;3.70;;
73575;SDS011;61859;49.204;8.140;2024-03-06T06:42:31;6.60;;;3.87;;
73575;SDS011;61859;49.204;8.140;2024-03-06T06:44:58;6.23;;;4.00;;
73575;SDS011;61859;49.204;8.140;2024-03-06T06:47:23;6.87;;;3.77;;
73575;SDS011;61859;49.204;8.140;2024-03-06T06:49:49;5.23;;;3.07;;
73575;SDS011;61859;49.204;8.140;2024-03-06T06:52:15;6.80;;;3.30;;
73575;SDS011;61859;49.204;8.140;2024-03-06T06:54:41;3.43;;;3.00;;
73575;SDS011;61859;49.204;8.140;2024-03-06T06:57:06;7.93;;;4.00;;
73575;SDS011;61859;49.204;8.140;2024-03-06T06:59:33;5.00;;;2.90;;
73575;SDS011;61859;49.204;8.140;2024-03-06T07:01:59;3.70;;;3.17;;
73575;SDS011;61859;49.204;8.140;2024-03-06T07:04:25;4.83;;;3.10;;
73575;SDS011;61859;49.204;8.140;2024-03-06T07:06:51;3.90;;;3.30;;
73575;SDS011;61859;49.204;8.140;2024-03-06T07:09:16;4.50;;;2.80;;
73575;SDS011;61859;49.204;8.140;2024-03-06T07:11:43;4.83;;;3.10;;
73575;SDS011;61859;49.204;8.140;2024-03-06T07:14:09;4.27;;;2.87;;
73575;SDS011;61859;49.204;8.140;2024-03-06T07:16:41;3.73;;;3.33;;
73575;SDS011;61859;49.204;8.140;2024-03-06T07:19:10;6.30;;;3.33;;
73575;SDS011;61859;49.204;8.140;2024-03-06T07:21:36;5.07;;;2.73;;
73575;SDS011;61859;49.204;8.140;2024-03-06T07:24:02;5.43;;;3.63;;
73575;SDS011;61859;49.204;8.140;2024-03-06T07:26:29;7.80;;;3.67;;
73575;SDS011;61859;49.204;8.140;2024-03-06T07:28:55;5.20;;;3.70;;
73575;SDS011;61859;49.204;8.140;2024-03-06T07:31:21;4.60;;;3.53;;
73575;SDS011;61859;49.204;8.140;2024-03-06T07:33:46;5.53;;;4.10;;
73575;SDS011;61859;49.204;8.140;2024-03-06T07:36:12;6.17;;;3.73;;
73575;SDS011;61859;49.204;8.140;2024-03-06T07:38:37;7.13;;;3.43;;
73575;SDS011;61859;49.204;8.140;2024-03-06T07:41:03;5.60;;;4.13;;
73575;SDS011;61859;49.204;8.140;2024-03-06T07:43:28;5.63;;;3.60;;
73575;SDS011;61859;49.204;8.140;2024-03-06T07:45:54;7.20;;;4.60;;
73575;SDS011;61859;49.204;8.140;2024-03-06T07:48:20;5.87;;;4.53;;
73575;SDS011;61859;49.204;8.140;2024-03-06T07:50:46;7.40;;;3.97;;
73575;SDS011;61859;49.204;8.140;2024-03-06T07:53:11;10.53;;;3.60;;
73575;SDS011;61859;49.204;8.140;2024-03-06T07:55:37;4.17;;;3.17;;
73575;SDS011;61859;49.204;8.140;2024-03-06T07:58:04;6.50;;;4.00;;
73575;SDS011;61859;49.204;8.140;2024-03-06T08:00:29;10.60;;;5.00;;
73575;SDS011;61859;49.204;8.140;2024-03-06T08:02:56;4.90;;;3.90;;
73575;SDS011;61859;49.204;8.140;2024-03-06T08:05:22;7.40;;;4.30;;
73575;SDS011;61859;49.204;8.140;2024-03-06T08:07:47;6.77;;;4.17;;
73575;SDS011;61859;49.204;8.140;2024-03-06T08:10:13;10.60;;;4.20;;
73575;SDS011;61859;49.204;8.140;2024-03-06T08:12:41;6.30;;;3.77;;
73575;SDS011;61859;49.204;8.140;2024-03-06T08:15:09;5.40;;;3.47;;
73575;SDS011;61859;49.204;8.140;2024-03-06T08:17:36;8.17;;;4.77;;
73575;SDS011;61859;49.204;8.140;2024-03-06T08:20:06;8.67;;;4.27;;
73575;SDS011;61859;49.204;8.140;2024-03-06T08:22:40;8.67;;;4.60;;
73575;SDS011;61859;49.204;8.140;2024-03-06T08:25:11;6.03;;;3.67;;
73575;SDS011;61859;49.204;8.140;2024-03-06T08:27:38;4.13;;;2.90;;
73575;SDS011;61859;49.204;8.140;2024-03-06T08:30:05;8.33;;;3.67;;
73575;SDS011;61859;49.204;8.140;2024-03-06T08:32:31;7.03;;;3.67;;
73575;SDS011;61859;49.204;8.140;2024-03-06T08:35:08;5.63;;;3.93;;
73575;SDS011;61859;49.204;8.140;2024-03-06T08:37:40;8.17;;;4.40;;
73575;SDS011;61859;49.204;8.140;2024-03-06T08:40:07;5.00;;;3.97;;
73575;SDS011;61859;49.204;8.140;2024-03-06T08:42:35;13.40;;;7.70;;
73575;SDS011;61859;49.204;8.140;2024-03-06T08:45:01;7.60;;;5.50;;
73575;SDS011;61859;49.204;8.140;2024-03-06T08:47:27;6.63;;;4.43;;
73575;SDS011;61859;49.204;8.140;2024-03-06T08:49:53;8.13;;;4.63;;
73575;SDS011;61859;49.204;8.140;2024-03-06T08:52:18;6.10;;;4.20;;
73575;SDS011;61859;49.204;8.140;2024-03-06T08:54:45;4.50;;;3.67;;
73575;SDS011;61859;49.204;8.140;2024-03-06T08:57:11;5.57;;;3.83;;
73575;SDS011;61859;49.204;8.140;2024-03-06T08:59:37;6.20;;;4.60;;
73575;SDS011;61859;49.204;8.140;2024-03-06T09:02:18;6.47;;;3.83;;
73575;SDS011;61859;49.204;8.140;2024-03-06T09:04:44;5.87;;;3.93;;
73575;SDS011;61859;49.204;8.140;2024-03-06T09:07:10;6.03;;;3.87;;
73575;SDS011;61859;49.204;8.140;2024-03-06T09:09:36;6.17;;;3.20;;
73575;SDS011;61859;49.204;8.140;2024-03-06T09:12:03;6.33;;;3.60;;
73575;SDS011;61859;49.204;8.140;2024-03-06T09:14:30;5.67;;;3.83;;
73575;SDS011;61859;49.204;8.140;2024-03-06T09:17:00;6.07;;;4.27;;
73575;SDS011;61859;49.204;8.140;2024-03-06T09:19:26;4.43;;;3.27;;
73575;SDS011;61859;49.204;8.140;2024-03-06T09:21:51;5.87;;;3.77;;
73575;SDS011;61859;49.204;8.140;2024-03-06T09:24:17;3.80;;;3.20;;
73575;SDS011;61859;49.204;8.140;2024-03-06T09:26:45;6.93;;;3.67;;
73575;SDS011;61859;49.204;8.140;2024-03-06T09:29:12;4.43;;;3.50;;
73575;SDS011;61859;49.204;8.140;2024-03-06T09:31:37;5.87;;;3.70;;
73575;SDS011;61859;49.204;8.140;2024-03-06T09:34:03;5.40;;;3.13;;
73575;SDS011;61859;49.204;8.140;2024-03-06T09:36:28;6.03;;;3.40;;
73575;SDS011;61859;49.204;8.140;2024-03-06T09:38:54;3.40;;;2.90;;
73575;SDS011;61859;49.204;8.140;2024-03-06T09:41:20;6.63;;;2.77;;
73575;SDS011;61859;49.204;8.140;2024-03-06T09:43:47;4.00;;;2.33;;
73575;SDS011;61859;49.204;8.140;2024-03-06T09:46:12;4.27;;;2.73;;
73575;SDS011;61859;49.204;8.140;2024-03-06T09:48:42;4.83;;;2.37;;
73575;SDS011;61859;49.204;8.140;2024-03-06T09:51:11;5.43;;;2.87;;
73575;SDS011;61859;49.204;8.140;2024-03-06T09:53:40;4.83;;;3.13;;
73575;SDS011;61859;49.204;8.140;2024-03-06T09:56:09;4.43;;;2.70;;
73575;SDS011;61859;49.204;8.140;2024-03-06T09:58:35;3.63;;;2.43;;
73575;SDS011;61859;49.204;8.140;2024-03-06T10:01:01;5.57;;;2.30;;
73575;SDS011;61859;49.204;8.140;2024-03-06T10:03:32;4.23;;;2.40;;
73575;SDS011;61859;49.204;8.140;2024-03-06T10:05:58;3.43;;;2.43;;
73575;SDS011;61859;49.204;8.140;2024-03-06T10:08:23;4.53;;;2.20;;
73575;SDS011;61859;49.204;8.140;2024-03-06T10:10:51;5.00;;;2.30;;
73575;SDS011;61859;49.204;8.140;2024-03-06T10:13:17;3.37;;;2.47;;
73575;SDS011;61859;49.204;8.140;2024-03-06T10:15:59;4.73;;;2.50;;
73575;SDS011;61859;49.204;8.140;2024-03-06T10:18:26;3.53;;;1.70;;
73575;SDS011;61859;49.204;8.140;2024-03-06T10:20:53;7.07;;;2.70;;
73575;SDS011;61859;49.204;8.140;2024-03-06T10:23:19;2.30;;;1.90;;
73575;SDS011;61859;49.204;8.140;2024-03-06T10:25:48;7.97;;;2.23;;
73575;SDS011;61859;49.204;8.140;2024-03-06T10:28:18;1.93;;;1.60;;
73575;SDS011;61859;49.204;8.140;2024-03-06T10:30:45;1.50;;;1.40;;
73575;SDS011;61859;49.204;8.140;2024-03-06T10:33:11;3.33;;;2.20;;
73575;SDS011;61859;49.204;8.140;2024-03-06T10:35:42;2.80;;;1.90;;
73575;SDS011;61859;49.204;8.140;2024-03-06T10:38:09;5.17;;;2.10;;
73575;SDS011;61859;49.204;8.140;2024-03-06T10:40:40;4.07;;;2.20;;
73575;SDS011;61859;49.204;8.140;2024-03-06T10:43:07;2.03;;;1.83;;
73575;SDS011;61859;49.204;8.140;2024-03-06T10:45:49;2.87;;;2.00;;
73575;SDS011;61859;49.204;8.140;2024-03-06T10:48:17;2.97;;;1.87;;
73575;SDS011;61859;49.204;8.140;2024-03-06T10:50:44;3.33;;;2.03;;
73575;SDS011;61859;49.204;8.140;2024-03-06T10:53:14;2.50;;;1.97;;
73575;SDS011;61859;49.204;8.140;2024-03-06T10:55:42;3.47;;;2.17;;
73575;SDS011;61859;49.204;8.140;2024-03-06T10:58:09;3.43;;;2.10;;
73575;SDS011;61859;49.204;8.140;2024-03-06T11:00:36;3.30;;;2.30;;
73575;SDS011;61859;49.204;8.140;2024-03-06T11:03:06;5.53;;;2.20;;
73575;SDS011;61859;49.204;8.140;2024-03-06T11:05:36;2.10;;;1.90;;
73575;SDS011;61859;49.204;8.140;2024-03-06T11:08:05;3.10;;;2.03;;
73575;SDS011;61859;49.204;8.140;2024-03-06T11:10:35;3.57;;;2.40;;
73575;SDS011;61859;49.204;8.140;2024-03-06T11:13:03;3.57;;;2.10;;
73575;SDS011;61859;49.204;8.140;2024-03-06T11:15:33;4.40;;;2.40;;
73575;SDS011;61859;49.204;8.140;2024-03-06T11:18:03;2.43;;;2.00;;
73575;SDS011;61859;49.204;8.140;2024-03-06T11:23:27;2.57;;;2.07;;
73575;SDS011;61859;49.204;8.140;2024-03-06T11:33:44;3.50;;;2.40;;
73575;SDS011;61859;49.204;8.140;2024-03-06T11:36:33;2.93;;;2.13;;
73575;SDS011;61859;49.204;8.140;2024-03-06T11:39:05;2.97;;;2.50;;
73575;SDS011;61859;49.204;8.140;2024-03-06T11:41:46;5.07;;;2.60;;
73575;SDS011;61859;49.204;8.140;2024-03-06T11:44:14;3.50;;;2.73;;
73575;SDS011;61859;49.204;8.140;2024-03-06T11:49:14;3.23;;;2.70;;
73575;SDS011;61859;49.204;8.140;2024-03-06T11:51:50;2.83;;;2.57;;
73575;SDS011;61859;49.204;8.140;2024-03-06T11:54:20;3.20;;;2.50;;
73575;SDS011;61859;49.204;8.140;2024-03-06T11:56:52;2.53;;;2.20;;
73575;SDS011;61859;49.204;8.140;2024-03-06T11:59:22;3.30;;;2.63;;
73575;SDS011;61859;49.204;8.140;2024-03-06T12:01:49;4.30;;;2.90;;
73575;SDS011;61859;49.204;8.140;2024-03-06T12:04:16;3.23;;;2.27;;
73575;SDS011;61859;49.204;8.140;2024-03-06T12:06:41;3.47;;;2.37;;
73575;SDS011;61859;49.204;8.140;2024-03-06T12:09:07;3.33;;;2.47;;
73575;SDS011;61859;49.204;8.140;2024-03-06T12:11:36;3.27;;;2.33;;
73575;SDS011;61859;49.204;8.140;2024-03-06T12:14:02;4.67;;;2.07;;
73575;SDS011;61859;49.204;8.140;2024-03-06T12:16:27;3.33;;;2.40;;
73575;SDS011;61859;49.204;8.140;2024-03-06T12:18:57;2.83;;;1.93;;
73575;SDS011;61859;49.204;8.140;2024-03-06T12:21:33;3.13;;;2.73;;
73575;SDS011;61859;49.204;8.140;2024-03-06T12:24:05;2.67;;;2.07;;
73575;SDS011;61859;49.204;8.140;2024-03-06T12:26:32;4.53;;;2.67;;
73575;SDS011;61859;49.204;8.140;2024-03-06T12:29:07;2.77;;;1.93;;
73575;SDS011;61859;49.204;8.140;2024-03-06T12:31:34;4.10;;;2.20;;
73575;SDS011;61859;49.204;8.140;2024-03-06T12:34:01;3.73;;;2.20;;
73575;SDS011;61859;49.204;8.140;2024-03-06T12:36:27;4.23;;;2.13;;
73575;SDS011;61859;49.204;8.140;2024-03-06T12:38:55;3.57;;;2.17;;
73575;SDS011;61859;49.204;8.140;2024-03-06T12:41:21;3.77;;;2.57;;
73575;SDS011;61859;49.204;8.140;2024-03-06T12:43:46;3.63;;;1.90;;
73575;SDS011;61859;49.204;8.140;2024-03-06T12:46:12;2.97;;;2.10;;
73575;SDS011;61859;49.204;8.140;2024-03-06T12:48:37;2.60;;;2.07;;
73575;SDS011;61859;49.204;8.140;2024-03-06T12:51:03;3.60;;;2.30;;
73575;SDS011;61859;49.204;8.140;2024-03-06T12:53:32;2.87;;;2.40;;
73575;SDS011;61859;49.204;8.140;2024-03-06T12:56:00;2.77;;;2.33;;
73575;SDS011;61859;49.204;8.140;2024-03-06T12:58:26;5.60;;;2.80;;
73575;SDS011;61859;49.204;8.140;2024-03-06T13:00:52;5.90;;;3.77;;
73575;SDS011;61859;49.204;8.140;2024-03-06T13:03:19;2.53;;;2.30;;
73575;SDS011;61859;49.204;8.140;2024-03-06T13:05:44;3.07;;;2.40;;
73575;SDS011;61859;49.204;8.140;2024-03-06T13:08:11;3.13;;;2.23;;
73575;SDS011;61859;49.204;8.140;2024-03-06T13:10:41;4.93;;;2.03;;
73575;SDS011;61859;49.204;8.140;2024-03-06T13:13:07;3.27;;;2.00;;
73575;SDS011;61859;49.204;8.140;2024-03-06T13:15:33;3.13;;;2.50;;
73575;SDS011;61859;49.204;8.140;2024-03-06T13:18:02;6.17;;;4.73;;
73575;SDS011;61859;49.204;8.140;2024-03-06T13:20:28;4.83;;;3.17;;
73575;SDS011;61859;49.204;8.140;2024-03-06T13:22:55;10.80;;;6.60;;
73575;SDS011;61859;49.204;8.140;2024-03-06T13:25:21;4.20;;;3.03;;
73575;SDS011;61859;49.204;8.140;2024-03-06T13:27:47;5.20;;;3.97;;
73575;SDS011;61859;49.204;8.140;2024-03-06T13:30:13;5.13;;;3.70;;
73575;SDS011;61859;49.204;8.140;2024-03-06T13:32:39;4.03;;;2.70;;
73575;SDS011;61859;49.204;8.140;2024-03-06T13:35:05;2.67;;;2.30;;
73575;SDS011;61859;49.204;8.140;2024-03-06T13:37:40;4.17;;;2.77;;
73575;SDS011;61859;49.204;8.140;2024-03-06T13:40:06;3.43;;;2.47;;
73575;SDS011;61859;49.204;8.140;2024-03-06T13:42:37;5.00;;;3.07;;
73575;SDS011;61859;49.204;8.140;2024-03-06T13:45:04;6.00;;;2.93;;
73575;SDS011;61859;49.204;8.140;2024-03-06T13:47:30;3.77;;;3.03;;
73575;SDS011;61859;49.204;8.140;2024-03-06T13:49:56;4.30;;;3.37;;
73575;SDS011;61859;49.204;8.140;2024-03-06T13:52:21;5.07;;;3.93;;
73575;SDS011;61859;49.204;8.140;2024-03-06T13:54:48;4.13;;;3.73;;
73575;SDS011;61859;49.204;8.140;2024-03-06T13:57:14;5.23;;;3.87;;
73575;SDS011;61859;49.204;8.140;2024-03-06T13:59:40;5.70;;;4.47;;
73575;SDS011;61859;49.204;8.140;2024-03-06T14:02:06;5.83;;;4.60;;
73575;SDS011;61859;49.204;8.140;2024-03-06T14:04:32;6.03;;;4.70;;
73575;SDS011;61859;49.204;8.140;2024-03-06T14:06:58;6.50;;;4.77;;
73575;SDS011;61859;49.204;8.140;2024-03-06T14:09:24;5.93;;;4.43;;
73575;SDS011;61859;49.204;8.140;2024-03-06T14:11:53;6.73;;;5.70;;
73575;SDS011;61859;49.204;8.140;2024-03-06T14:14:19;6.53;;;5.33;;
73575;SDS011;61859;49.204;8.140;2024-03-06T14:16:45;11.03;;;5.80;;
73575;SDS011;61859;49.204;8.140;2024-03-06T14:19:11;7.87;;;5.80;;
73575;SDS011;61859;49.204;8.140;2024-03-06T14:21:37;9.13;;;6.70;;
73575;SDS011;61859;49.204;8.140;2024-03-06T14:24:03;7.70;;;6.10;;
73575;SDS011;61859;49.204;8.140;2024-03-06T14:26:31;8.97;;;6.10;;
73575;SDS011;61859;49.204;8.140;2024-03-06T14:29:00;8.77;;;5.93;;
73575;SDS011;61859;49.204;8.140;2024-03-06T14:31:31;8.20;;;6.40;;
73575;SDS011;61859;49.204;8.140;2024-03-06T14:33:56;9.43;;;6.77;;
73575;SDS011;61859;49.204;8.140;2024-03-06T14:36:22;9.10;;;6.97;;
73575;SDS011;61859;49.204;8.140;2024-03-06T14:38:49;8.90;;;6.87;;
73575;SDS011;61859;49.204;8.140;2024-03-06T14:41:17;10.07;;;7.60;;
73575;SDS011;61859;49.204;8.140;2024-03-06T14:43:43;10.77;;;7.60;;
73575;SDS011;61859;49.204;8.140;2024-03-06T14:46:10;10.87;;;7.40;;
73575;SDS011;61859;49.204;8.140;2024-03-06T14:48:37;9.10;;;7.17;;
73575;SDS011;61859;49.204;8.140;2024-03-06T14:51:03;9.27;;;6.90;;
73575;SDS011;61859;49.204;8.140;2024-03-06T14:53:28;9.87;;;7.10;;
73575;SDS011;61859;49.204;8.140;2024-03-06T14:55:55;10.17;;;7.70;;
73575;SDS011;61859;49.204;8.140;2024-03-06T14:58:21;11.70;;;8.20;;